sensor_id;sensor_type;location;lat;lon;timestamp;temperature;humidity
18384;DHT22;9318;48.644;9.456;2024-03-02T00:01:16;4.90;99.90
18384;DHT22;9318;48.644;9.456;2024-03-02T00:03:42;4.90;99.90
18384;DHT22;9318;48.644;9.456;2024-03-02T00:06:10;4.90;99.90
18384;DHT22;9318;48.644;9.456;2024-03-02T00:08:37;4.90;99.90
18384;DHT22;9318;48.644;9.456;2024-03-02T00:11:04;4.90;99.90
18384;DHT22;9318;48.644;9.456;2024-03-02T00:13:31;4.90;99.90
18384;DHT22;9318;48.644;9.456;2024-03-02T00:15:59;4.90;99.90
18384;DHT22;9318;48.644;9.456;2024-03-02T00:18:30;4.80;99.90
18384;DHT22;9318;48.644;9.456;2024-03-02T00:20:58;4.80;99.90
18384;DHT22;9318;48.644;9.456;2024-03-02T00:23:27;4.80;99.90
18384;DHT22;9318;48.644;9.456;2024-03-02T00:25:55;4.80;99.90
18384;DHT22;9318;48.644;9.456;2024-03-02T00:28:24;4.80;99.90
18384;DHT22;9318;48.644;9.456;2024-03-02T00:30:55;4.90;99.90
18384;DHT22;9318;48.644;9.456;2024-03-02T00:33:23;4.80;99.90
18384;DHT22;9318;48.644;9.456;2024-03-02T00:35:52;4.80;99.90
18384;DHT22;9318;48.644;9.456;2024-03-02T00:38:19;4.90;99.90
18384;DHT22;9318;48.644;9.456;2024-03-02T00:40:46;4.90;99.90
18384;DHT22;9318;48.644;9.456;2024-03-02T00:43:43;4.90;99.90
18384;DHT22;9318;48.644;9.456;2024-03-02T00:46:13;4.90;99.90
18384;DHT22;9318;48.644;9.456;2024-03-02T00:48:48;4.90;99.90
18384;DHT22;9318;48.644;9.456;2024-03-02T00:51:16;4.90;99.90
18384;DHT22;9318;48.644;9.456;2024-03-02T00:53:43;4.90;99.90
18384;DHT22;9318;48.644;9.456;2024-03-02T00:56:10;4.80;99.90
18384;DHT22;9318;48.644;9.456;2024-03-02T00:58:38;4.70;99.90
18384;DHT22;9318;48.644;9.456;2024-03-02T01:01:05;4.70;99.90
18384;DHT22;9318;48.644;9.456;2024-03-02T01:03:33;4.70;99.90
18384;DHT22;9318;48.644;9.456;2024-03-02T01:05:59;4.70;99.90
18384;DHT22;9318;48.644;9.456;2024-03-02T01:08:28;4.70;99.90
18384;DHT22;9318;48.644;9.456;2024-03-02T01:10:54;4.60;99.90
18384;DHT22;9318;48.644;9.456;2024-03-02T01:13:22;4.60;99.90
18384;DHT22;9318;48.644;9.456;2024-03-02T01:15:49;4.60;99.90
18384;DHT22;9318;48.644;9.456;2024-03-02T01:18:16;4.60;99.90
18384;DHT22;9318;48.644;9.456;2024-03-02T01:20:43;4.60;99.90
18384;DHT22;9318;48.644;9.456;2024-03-02T01:23:10;4.60;99.90
18384;DHT22;9318;48.644;9.456;2024-03-02T01:25:38;4.70;99.90
18384;DHT22;9318;48.644;9.456;2024-03-02T01:28:05;4.60;99.90
18384;DHT22;9318;48.644;9.456;2024-03-02T01:30:32;4.60;99.90
18384;DHT22;9318;48.644;9.456;2024-03-02T01:32:59;4.60;99.90
18384;DHT22;9318;48.644;9.456;2024-03-02T01:35:27;4.60;99.90
18384;DHT22;9318;48.644;9.456;2024-03-02T01:37:54;4.60;99.90
18384;DHT22;9318;48.644;9.456;2024-03-02T01:40:21;4.70;99.90
18384;DHT22;9318;48.644;9.456;2024-03-02T01:42:53;4.70;99.90
18384;DHT22;9318;48.644;9.456;2024-03-02T01:45:20;4.60;99.90
18384;DHT22;9318;48.644;9.456;2024-03-02T01:47:48;4.60;99.90
18384;DHT22;9318;48.644;9.456;2024-03-02T01:50:15;4.60;99.90
18384;DHT22;9318;48.644;9.456;2024-03-02T01:52:41;4.60;99.90
18384;DHT22;9318;48.644;9.456;2024-03-02T01:55:09;4.60;99.90
18384;DHT22;9318;48.644;9.456;2024-03-02T01:57:36;4.70;99.90
18384;DHT22;9318;48.644;9.456;2024-03-02T02:00:06;4.70;99.90
18384;DHT22;9318;48.644;9.456;2024-03-02T02:02:35;4.70;99.90
18384;DHT22;9318;48.644;9.456;2024-03-02T02:05:02;4.60;99.90
18384;DHT22;9318;48.644;9.456;2024-03-02T02:07:29;4.60;99.90
18384;DHT22;9318;48.644;9.456;2024-03-02T02:09:55;4.60;99.90
18384;DHT22;9318;48.644;9.456;2024-03-02T02:12:22;4.60;99.90
18384;DHT22;9318;48.644;9.456;2024-03-02T02:14:49;4.60;99.90
18384;DHT22;9318;48.644;9.456;2024-03-02T02:17:18;4.60;99.90
18384;DHT22;9318;48.644;9.456;2024-03-02T02:19:44;4.60;99.90
18384;DHT22;9318;48.644;9.456;2024-03-02T02:22:12;4.60;99.90
18384;DHT22;9318;48.644;9.456;2024-03-02T02:24:40;4.60;99.90
18384;DHT22;9318;48.644;9.456;2024-03-02T02:27:07;4.60;99.90
18384;DHT22;9318;48.644;9.456;2024-03-02T02:29:35;4.60;99.90
18384;DHT22;9318;48.644;9.456;2024-03-02T02:32:02;4.50;99.90
18384;DHT22;9318;48.644;9.456;2024-03-02T02:34:29;4.50;99.90
18384;DHT22;9318;48.644;9.456;2024-03-02T02:36:55;4.40;99.90
18384;DHT22;9318;48.644;9.456;2024-03-02T02:39:23;4.40;99.90
18384;DHT22;9318;48.644;9.456;2024-03-02T02:41:49;4.40;99.90
18384;DHT22;9318;48.644;9.456;2024-03-02T02:44:16;4.40;99.90
18384;DHT22;9318;48.644;9.456;2024-03-02T02:46:43;4.40;99.90
18384;DHT22;9318;48.644;9.456;2024-03-02T02:49:09;4.40;99.90
18384;DHT22;9318;48.644;9.456;2024-03-02T02:51:36;4.40;99.90
18384;DHT22;9318;48.644;9.456;2024-03-02T02:54:03;4.30;99.90
18384;DHT22;9318;48.644;9.456;2024-03-02T02:56:31;4.30;99.90
18384;DHT22;9318;48.644;9.456;2024-03-02T02:58:58;4.20;99.90
18384;DHT22;9318;48.644;9.456;2024-03-02T03:01:25;4.20;99.90
18384;DHT22;9318;48.644;9.456;2024-03-02T03:03:52;4.20;99.90
18384;DHT22;9318;48.644;9.456;2024-03-02T03:06:19;4.30;99.90
18384;DHT22;9318;48.644;9.456;2024-03-02T03:08:45;4.30;99.90
18384;DHT22;9318;48.644;9.456;2024-03-02T03:11:12;4.30;99.90
18384;DHT22;9318;48.644;9.456;2024-03-02T03:13:41;4.30;99.90
18384;DHT22;9318;48.644;9.456;2024-03-02T03:16:08;4.30;99.90
18384;DHT22;9318;48.644;9.456;2024-03-02T03:18:35;4.30;99.90
18384;DHT22;9318;48.644;9.456;2024-03-02T03:21:01;4.20;99.90
18384;DHT22;9318;48.644;9.456;2024-03-02T03:23:28;4.20;99.90
18384;DHT22;9318;48.644;9.456;2024-03-02T03:25:55;4.10;99.90
18384;DHT22;9318;48.644;9.456;2024-03-02T03:28:22;4.10;99.90
18384;DHT22;9318;48.644;9.456;2024-03-02T03:30:49;4.10;99.90
18384;DHT22;9318;48.644;9.456;2024-03-02T03:33:16;4.10;99.90
18384;DHT22;9318;48.644;9.456;2024-03-02T03:35:42;4.00;99.90
18384;DHT22;9318;48.644;9.456;2024-03-02T03:38:09;4.00;99.90
18384;DHT22;9318;48.644;9.456;2024-03-02T03:40:36;3.90;99.90
18384;DHT22;9318;48.644;9.456;2024-03-02T03:43:03;3.90;99.90
18384;DHT22;9318;48.644;9.456;2024-03-02T03:45:30;3.90;99.90
18384;DHT22;9318;48.644;9.456;2024-03-02T03:47:58;3.90;99.90
18384;DHT22;9318;48.644;9.456;2024-03-02T03:50:25;3.90;99.90
18384;DHT22;9318;48.644;9.456;2024-03-02T03:52:51;3.90;99.90
18384;DHT22;9318;48.644;9.456;2024-03-02T03:55:18;3.90;99.90
18384;DHT22;9318;48.644;9.456;2024-03-02T03:57:45;3.80;99.90
18384;DHT22;9318;48.644;9.456;2024-03-02T04:00:12;3.80;99.90
18384;DHT22;9318;48.644;9.456;2024-03-02T04:02:39;3.80;99.90
18384;DHT22;9318;48.644;9.456;2024-03-02T04:05:08;3.80;99.90
18384;DHT22;9318;48.644;9.456;2024-03-02T04:07:36;3.80;99.90
18384;DHT22;9318;48.644;9.456;2024-03-02T04:10:07;3.80;99.90
18384;DHT22;9318;48.644;9.456;2024-03-02T04:12:35;3.70;99.90
18384;DHT22;9318;48.644;9.456;2024-03-02T04:15:02;3.70;99.90
18384;DHT22;9318;48.644;9.456;2024-03-02T04:17:31;3.70;99.90
18384;DHT22;9318;48.644;9.456;2024-03-02T04:19:58;3.70;99.90
18384;DHT22;9318;48.644;9.456;2024-03-02T04:22:27;3.70;99.90
18384;DHT22;9318;48.644;9.456;2024-03-02T04:24:53;3.70;99.90
18384;DHT22;9318;48.644;9.456;2024-03-02T04:27:20;3.60;99.90
18384;DHT22;9318;48.644;9.456;2024-03-02T04:29:47;3.60;99.90
18384;DHT22;9318;48.644;9.456;2024-03-02T04:32:14;3.60;99.90
18384;DHT22;9318;48.644;9.456;2024-03-02T04:34:41;3.60;99.90
18384;DHT22;9318;48.644;9.456;2024-03-02T04:37:08;3.50;99.90
18384;DHT22;9318;48.644;9.456;2024-03-02T04:39:36;3.50;99.90
18384;DHT22;9318;48.644;9.456;2024-03-02T04:42:03;3.50;99.90
18384;DHT22;9318;48.644;9.456;2024-03-02T04:44:30;3.50;99.90
18384;DHT22;9318;48.644;9.456;2024-03-02T04:46:56;3.50;99.90
18384;DHT22;9318;48.644;9.456;2024-03-02T04:49:23;3.50;99.90
18384;DHT22;9318;48.644;9.456;2024-03-02T04:51:50;3.50;99.90
18384;DHT22;9318;48.644;9.456;2024-03-02T04:54:17;3.50;99.90
18384;DHT22;9318;48.644;9.456;2024-03-02T04:56:45;3.50;99.90
18384;DHT22;9318;48.644;9.456;2024-03-02T04:59:15;3.60;99.90
18384;DHT22;9318;48.644;9.456;2024-03-02T05:01:41;3.50;99.90
18384;DHT22;9318;48.644;9.456;2024-03-02T05:04:08;3.50;99.90
18384;DHT22;9318;48.644;9.456;2024-03-02T05:06:37;3.50;99.90
18384;DHT22;9318;48.644;9.456;2024-03-02T05:09:04;3.40;99.90
18384;DHT22;9318;48.644;9.456;2024-03-02T05:11:30;3.40;99.90
18384;DHT22;9318;48.644;9.456;2024-03-02T05:14:26;3.40;99.90
18384;DHT22;9318;48.644;9.456;2024-03-02T05:16:52;3.40;99.90
18384;DHT22;9318;48.644;9.456;2024-03-02T05:19:19;3.30;99.90
18384;DHT22;9318;48.644;9.456;2024-03-02T05:21:46;3.30;99.90
18384;DHT22;9318;48.644;9.456;2024-03-02T05:24:12;3.30;99.90
18384;DHT22;9318;48.644;9.456;2024-03-02T05:26:39;3.30;99.90
18384;DHT22;9318;48.644;9.456;2024-03-02T05:29:06;3.20;99.90
18384;DHT22;9318;48.644;9.456;2024-03-02T05:31:34;3.20;99.90
18384;DHT22;9318;48.644;9.456;2024-03-02T05:34:01;3.10;99.90
18384;DHT22;9318;48.644;9.456;2024-03-02T05:36:28;3.10;99.90
18384;DHT22;9318;48.644;9.456;2024-03-02T05:38:54;3.10;99.90
18384;DHT22;9318;48.644;9.456;2024-03-02T05:41:21;3.00;99.90
18384;DHT22;9318;48.644;9.456;2024-03-02T05:43:48;3.10;99.90
18384;DHT22;9318;48.644;9.456;2024-03-02T05:46:15;3.10;99.90
18384;DHT22;9318;48.644;9.456;2024-03-02T05:48:43;3.00;99.90
18384;DHT22;9318;48.644;9.456;2024-03-02T05:51:10;3.00;99.90
18384;DHT22;9318;48.644;9.456;2024-03-02T05:53:37;3.10;99.90
18384;DHT22;9318;48.644;9.456;2024-03-02T05:56:04;3.10;99.90
18384;DHT22;9318;48.644;9.456;2024-03-02T05:58:31;3.00;99.90
18384;DHT22;9318;48.644;9.456;2024-03-02T06:01:11;3.00;99.90
18384;DHT22;9318;48.644;9.456;2024-03-02T06:03:38;2.90;99.90
18384;DHT22;9318;48.644;9.456;2024-03-02T06:06:06;2.90;99.90
18384;DHT22;9318;48.644;9.456;2024-03-02T06:08:33;2.90;99.90
18384;DHT22;9318;48.644;9.456;2024-03-02T06:11:00;2.90;99.90
18384;DHT22;9318;48.644;9.456;2024-03-02T06:13:27;2.90;99.90
18384;DHT22;9318;48.644;9.456;2024-03-02T06:15:54;2.90;99.90
18384;DHT22;9318;48.644;9.456;2024-03-02T06:18:20;2.90;99.90
18384;DHT22;9318;48.644;9.456;2024-03-02T06:20:47;2.90;99.90
18384;DHT22;9318;48.644;9.456;2024-03-02T06:23:16;2.90;99.90
18384;DHT22;9318;48.644;9.456;2024-03-02T06:25:42;2.90;99.90
18384;DHT22;9318;48.644;9.456;2024-03-02T06:28:09;2.90;99.90
18384;DHT22;9318;48.644;9.456;2024-03-02T06:30:36;2.90;99.90
18384;DHT22;9318;48.644;9.456;2024-03-02T06:33:03;2.90;99.90
18384;DHT22;9318;48.644;9.456;2024-03-02T06:35:31;2.90;99.90
18384;DHT22;9318;48.644;9.456;2024-03-02T06:37:58;2.90;99.90
18384;DHT22;9318;48.644;9.456;2024-03-02T06:40:25;2.90;99.90
18384;DHT22;9318;48.644;9.456;2024-03-02T06:42:52;3.00;99.90
18384;DHT22;9318;48.644;9.456;2024-03-02T06:45:19;3.10;99.90
18384;DHT22;9318;48.644;9.456;2024-03-02T06:47:46;3.10;99.90
18384;DHT22;9318;48.644;9.456;2024-03-02T06:50:12;3.20;99.90
18384;DHT22;9318;48.644;9.456;2024-03-02T06:52:39;3.20;99.90
18384;DHT22;9318;48.644;9.456;2024-03-02T06:55:06;3.30;99.90
18384;DHT22;9318;48.644;9.456;2024-03-02T06:57:35;3.40;99.90
18384;DHT22;9318;48.644;9.456;2024-03-02T07:00:01;3.40;99.90
18384;DHT22;9318;48.644;9.456;2024-03-02T07:02:30;3.50;99.90
18384;DHT22;9318;48.644;9.456;2024-03-02T07:04:57;3.60;99.90
18384;DHT22;9318;48.644;9.456;2024-03-02T07:07:24;3.60;99.90
18384;DHT22;9318;48.644;9.456;2024-03-02T07:09:51;3.70;99.90
18384;DHT22;9318;48.644;9.456;2024-03-02T07:12:18;3.80;99.90
18384;DHT22;9318;48.644;9.456;2024-03-02T07:14:46;3.90;99.90
18384;DHT22;9318;48.644;9.456;2024-03-02T07:17:50;4.00;99.90
18384;DHT22;9318;48.644;9.456;2024-03-02T07:20:17;4.20;99.90
18384;DHT22;9318;48.644;9.456;2024-03-02T07:22:44;4.30;99.90
18384;DHT22;9318;48.644;9.456;2024-03-02T07:25:11;4.50;99.90
18384;DHT22;9318;48.644;9.456;2024-03-02T07:27:38;4.70;99.90
18384;DHT22;9318;48.644;9.456;2024-03-02T07:30:07;4.90;99.90
18384;DHT22;9318;48.644;9.456;2024-03-02T07:32:34;5.10;99.90
18384;DHT22;9318;48.644;9.456;2024-03-02T07:35:01;5.30;99.90
18384;DHT22;9318;48.644;9.456;2024-03-02T07:37:29;5.70;99.90
18384;DHT22;9318;48.644;9.456;2024-03-02T07:39:56;6.20;99.90
18384;DHT22;9318;48.644;9.456;2024-03-02T07:42:22;6.70;99.90
18384;DHT22;9318;48.644;9.456;2024-03-02T07:44:49;7.30;99.90
18384;DHT22;9318;48.644;9.456;2024-03-02T07:47:17;7.80;99.90
18384;DHT22;9318;48.644;9.456;2024-03-02T07:49:44;8.40;99.90
18384;DHT22;9318;48.644;9.456;2024-03-02T07:52:11;8.80;99.90
18384;DHT22;9318;48.644;9.456;2024-03-02T07:54:38;9.30;99.90
18384;DHT22;9318;48.644;9.456;2024-03-02T07:57:05;10.20;99.90
18384;DHT22;9318;48.644;9.456;2024-03-02T07:59:32;11.00;99.90
18384;DHT22;9318;48.644;9.456;2024-03-02T08:01:58;11.70;99.90
18384;DHT22;9318;48.644;9.456;2024-03-02T08:04:27;12.30;99.90
18384;DHT22;9318;48.644;9.456;2024-03-02T08:06:54;13.10;99.90
18384;DHT22;9318;48.644;9.456;2024-03-02T08:09:21;13.60;99.90
18384;DHT22;9318;48.644;9.456;2024-03-02T08:11:48;13.90;99.90
18384;DHT22;9318;48.644;9.456;2024-03-02T08:14:15;13.80;99.90
18384;DHT22;9318;48.644;9.456;2024-03-02T08:16:41;13.40;99.90
18384;DHT22;9318;48.644;9.456;2024-03-02T08:19:08;13.10;99.90
18384;DHT22;9318;48.644;9.456;2024-03-02T08:21:37;12.70;99.90
18384;DHT22;9318;48.644;9.456;2024-03-02T08:24:04;12.00;99.90
18384;DHT22;9318;48.644;9.456;2024-03-02T08:26:31;11.20;99.90
18384;DHT22;9318;48.644;9.456;2024-03-02T08:28:58;10.30;99.90
18384;DHT22;9318;48.644;9.456;2024-03-02T08:31:27;9.90;99.90
18384;DHT22;9318;48.644;9.456;2024-03-02T08:33:53;9.80;99.90
18384;DHT22;9318;48.644;9.456;2024-03-02T08:36:20;9.60;99.90
18384;DHT22;9318;48.644;9.456;2024-03-02T08:38:50;9.70;99.90
18384;DHT22;9318;48.644;9.456;2024-03-02T08:41:17;9.80;99.90
18384;DHT22;9318;48.644;9.456;2024-03-02T08:43:44;9.90;99.90
18384;DHT22;9318;48.644;9.456;2024-03-02T08:46:11;9.80;99.90
18384;DHT22;9318;48.644;9.456;2024-03-02T08:48:38;10.00;99.90
18384;DHT22;9318;48.644;9.456;2024-03-02T08:51:04;10.00;99.90
18384;DHT22;9318;48.644;9.456;2024-03-02T08:53:33;10.10;99.90
18384;DHT22;9318;48.644;9.456;2024-03-02T08:56:01;10.20;99.90
18384;DHT22;9318;48.644;9.456;2024-03-02T08:58:30;10.20;99.90
18384;DHT22;9318;48.644;9.456;2024-03-02T09:00:57;10.40;99.90
18384;DHT22;9318;48.644;9.456;2024-03-02T09:03:24;10.50;99.90
18384;DHT22;9318;48.644;9.456;2024-03-02T09:05:51;10.70;99.90
18384;DHT22;9318;48.644;9.456;2024-03-02T09:08:18;11.00;99.90
18384;DHT22;9318;48.644;9.456;2024-03-02T09:10:45;11.50;99.90
18384;DHT22;9318;48.644;9.456;2024-03-02T09:13:13;12.10;99.90
18384;DHT22;9318;48.644;9.456;2024-03-02T09:15:40;12.90;99.90
18384;DHT22;9318;48.644;9.456;2024-03-02T09:18:07;14.20;99.90
18384;DHT22;9318;48.644;9.456;2024-03-02T09:20:33;16.10;99.90
18384;DHT22;9318;48.644;9.456;2024-03-02T09:23:00;17.80;99.90
18384;DHT22;9318;48.644;9.456;2024-03-02T09:25:27;18.80;99.90
18384;DHT22;9318;48.644;9.456;2024-03-02T09:27:54;19.60;99.90
18384;DHT22;9318;48.644;9.456;2024-03-02T09:30:22;20.20;99.90
18384;DHT22;9318;48.644;9.456;2024-03-02T09:32:48;20.60;99.90
18384;DHT22;9318;48.644;9.456;2024-03-02T09:35:15;21.30;99.90
18384;DHT22;9318;48.644;9.456;2024-03-02T09:37:42;22.20;99.90
18384;DHT22;9318;48.644;9.456;2024-03-02T09:40:10;22.50;99.90
18384;DHT22;9318;48.644;9.456;2024-03-02T09:42:37;23.30;99.90
18384;DHT22;9318;48.644;9.456;2024-03-02T09:45:05;23.60;98.80
18384;DHT22;9318;48.644;9.456;2024-03-02T09:47:34;24.20;96.40
18384;DHT22;9318;48.644;9.456;2024-03-02T09:50:01;24.00;96.50
18384;DHT22;9318;48.644;9.456;2024-03-02T09:52:27;25.00;96.20
18384;DHT22;9318;48.644;9.456;2024-03-02T09:54:54;26.00;94.00
18384;DHT22;9318;48.644;9.456;2024-03-02T09:57:21;26.10;92.90
18384;DHT22;9318;48.644;9.456;2024-03-02T09:59:48;26.50;91.40
18384;DHT22;9318;48.644;9.456;2024-03-02T10:02:14;27.30;91.40
18384;DHT22;9318;48.644;9.456;2024-03-02T10:04:42;28.00;88.80
18384;DHT22;9318;48.644;9.456;2024-03-02T10:07:12;28.10;82.50
18384;DHT22;9318;48.644;9.456;2024-03-02T10:09:39;27.80;81.80
18384;DHT22;9318;48.644;9.456;2024-03-02T10:12:07;27.30;81.10
18384;DHT22;9318;48.644;9.456;2024-03-02T10:14:34;27.00;81.20
18384;DHT22;9318;48.644;9.456;2024-03-02T10:17:05;26.80;78.80
18384;DHT22;9318;48.644;9.456;2024-03-02T10:19:33;25.90;76.60
18384;DHT22;9318;48.644;9.456;2024-03-02T10:22:02;24.90;78.10
18384;DHT22;9318;48.644;9.456;2024-03-02T10:24:35;25.90;79.30
18384;DHT22;9318;48.644;9.456;2024-03-02T10:27:07;26.40;79.80
18384;DHT22;9318;48.644;9.456;2024-03-02T10:29:37;26.80;78.70
18384;DHT22;9318;48.644;9.456;2024-03-02T10:32:04;26.60;77.30
18384;DHT22;9318;48.644;9.456;2024-03-02T10:34:32;26.30;74.90
18384;DHT22;9318;48.644;9.456;2024-03-02T10:37:01;25.70;77.50
18384;DHT22;9318;48.644;9.456;2024-03-02T10:39:28;25.70;78.70
18384;DHT22;9318;48.644;9.456;2024-03-02T10:41:57;26.40;72.30
18384;DHT22;9318;48.644;9.456;2024-03-02T10:44:25;26.40;70.10
18384;DHT22;9318;48.644;9.456;2024-03-02T10:46:53;25.70;70.30
18384;DHT22;9318;48.644;9.456;2024-03-02T10:49:20;24.30;75.20
18384;DHT22;9318;48.644;9.456;2024-03-02T10:51:49;23.80;76.30
18384;DHT22;9318;48.644;9.456;2024-03-02T10:54:17;22.80;77.20
18384;DHT22;9318;48.644;9.456;2024-03-02T10:56:51;22.00;80.10
18384;DHT22;9318;48.644;9.456;2024-03-02T10:59:27;20.20;82.50
18384;DHT22;9318;48.644;9.456;2024-03-02T11:01:56;19.40;86.10
18384;DHT22;9318;48.644;9.456;2024-03-02T11:04:25;19.10;88.00
18384;DHT22;9318;48.644;9.456;2024-03-02T11:06:56;18.60;92.30
18384;DHT22;9318;48.644;9.456;2024-03-02T11:09:28;18.10;91.10
18384;DHT22;9318;48.644;9.456;2024-03-02T11:12:00;17.90;91.50
18384;DHT22;9318;48.644;9.456;2024-03-02T11:14:30;17.50;91.40
18384;DHT22;9318;48.644;9.456;2024-03-02T11:16:57;17.20;91.70
18384;DHT22;9318;48.644;9.456;2024-03-02T11:19:24;17.00;93.20
18384;DHT22;9318;48.644;9.456;2024-03-02T11:21:52;16.90;93.10
18384;DHT22;9318;48.644;9.456;2024-03-02T11:24:30;16.70;93.60
18384;DHT22;9318;48.644;9.456;2024-03-02T11:27:01;16.50;93.90
18384;DHT22;9318;48.644;9.456;2024-03-02T11:29:44;16.50;94.30
18384;DHT22;9318;48.644;9.456;2024-03-02T11:32:17;16.40;94.30
18384;DHT22;9318;48.644;9.456;2024-03-02T11:34:46;16.50;96.50
18384;DHT22;9318;48.644;9.456;2024-03-02T11:37:14;16.60;94.40
18384;DHT22;9318;48.644;9.456;2024-03-02T11:39:43;16.50;94.30
18384;DHT22;9318;48.644;9.456;2024-03-02T11:42:12;16.50;96.90
18384;DHT22;9318;48.644;9.456;2024-03-02T11:44:44;16.50;95.20
18384;DHT22;9318;48.644;9.456;2024-03-02T11:47:12;16.50;97.40
18384;DHT22;9318;48.644;9.456;2024-03-02T11:49:44;16.60;97.50
18384;DHT22;9318;48.644;9.456;2024-03-02T11:52:13;16.70;94.80
18384;DHT22;9318;48.644;9.456;2024-03-02T11:54:43;16.70;95.90
18384;DHT22;9318;48.644;9.456;2024-03-02T11:57:13;16.70;95.60
18384;DHT22;9318;48.644;9.456;2024-03-02T11:59:40;16.80;96.20
18384;DHT22;9318;48.644;9.456;2024-03-02T12:02:14;16.80;94.60
18384;DHT22;9318;48.644;9.456;2024-03-02T12:04:42;16.80;94.90
18384;DHT22;9318;48.644;9.456;2024-03-02T12:07:10;16.80;94.90
18384;DHT22;9318;48.644;9.456;2024-03-02T12:09:37;16.80;94.40
18384;DHT22;9318;48.644;9.456;2024-03-02T12:12:07;16.80;94.50
18384;DHT22;9318;48.644;9.456;2024-03-02T12:14:35;16.80;94.10
18384;DHT22;9318;48.644;9.456;2024-03-02T12:17:03;16.80;96.00
18384;DHT22;9318;48.644;9.456;2024-03-02T12:19:30;16.90;94.90
18384;DHT22;9318;48.644;9.456;2024-03-02T12:21:58;16.90;95.30
18384;DHT22;9318;48.644;9.456;2024-03-02T12:24:27;16.80;94.80
18384;DHT22;9318;48.644;9.456;2024-03-02T12:26:55;16.70;97.80
18384;DHT22;9318;48.644;9.456;2024-03-02T12:29:23;16.80;96.20
18384;DHT22;9318;48.644;9.456;2024-03-02T12:31:51;16.70;94.50
18384;DHT22;9318;48.644;9.456;2024-03-02T12:34:19;16.60;95.50
18384;DHT22;9318;48.644;9.456;2024-03-02T12:36:46;16.50;94.90
18384;DHT22;9318;48.644;9.456;2024-03-02T12:39:15;16.60;95.70
18384;DHT22;9318;48.644;9.456;2024-03-02T12:41:42;16.70;97.40
18384;DHT22;9318;48.644;9.456;2024-03-02T12:44:09;16.70;95.10
18384;DHT22;9318;48.644;9.456;2024-03-02T12:46:37;16.70;95.40
18384;DHT22;9318;48.644;9.456;2024-03-02T12:49:09;16.60;95.10
18384;DHT22;9318;48.644;9.456;2024-03-02T12:51:37;16.60;94.80
18384;DHT22;9318;48.644;9.456;2024-03-02T12:54:06;16.60;95.30
18384;DHT22;9318;48.644;9.456;2024-03-02T12:56:33;16.60;94.30
18384;DHT22;9318;48.644;9.456;2024-03-02T12:59:00;16.60;94.90
18384;DHT22;9318;48.644;9.456;2024-03-02T13:01:27;16.70;95.20
18384;DHT22;9318;48.644;9.456;2024-03-02T13:03:55;16.90;94.50
18384;DHT22;9318;48.644;9.456;2024-03-02T13:06:23;17.00;94.70
18384;DHT22;9318;48.644;9.456;2024-03-02T13:08:50;17.00;93.80
18384;DHT22;9318;48.644;9.456;2024-03-02T13:11:17;17.00;94.40
18384;DHT22;9318;48.644;9.456;2024-03-02T13:13:43;16.90;93.30
18384;DHT22;9318;48.644;9.456;2024-03-02T13:16:11;16.90;92.90
18384;DHT22;9318;48.644;9.456;2024-03-02T13:18:39;16.80;93.90
18384;DHT22;9318;48.644;9.456;2024-03-02T13:21:08;16.90;93.10
18384;DHT22;9318;48.644;9.456;2024-03-02T13:23:35;16.90;93.50
18384;DHT22;9318;48.644;9.456;2024-03-02T13:26:02;16.90;93.20
18384;DHT22;9318;48.644;9.456;2024-03-02T13:28:30;16.80;92.70
18384;DHT22;9318;48.644;9.456;2024-03-02T13:30:56;16.80;94.20
18384;DHT22;9318;48.644;9.456;2024-03-02T13:33:23;16.80;92.80
18384;DHT22;9318;48.644;9.456;2024-03-02T13:35:50;16.80;92.80
18384;DHT22;9318;48.644;9.456;2024-03-02T13:38:19;16.90;92.20
18384;DHT22;9318;48.644;9.456;2024-03-02T13:40:47;16.70;92.00
18384;DHT22;9318;48.644;9.456;2024-03-02T13:43:17;16.80;91.50
18384;DHT22;9318;48.644;9.456;2024-03-02T13:45:44;16.80;91.90
18384;DHT22;9318;48.644;9.456;2024-03-02T13:48:10;16.80;91.20
18384;DHT22;9318;48.644;9.456;2024-03-02T13:50:37;16.80;91.20
18384;DHT22;9318;48.644;9.456;2024-03-02T13:53:04;16.80;91.30
18384;DHT22;9318;48.644;9.456;2024-03-02T13:55:33;16.90;90.40
18384;DHT22;9318;48.644;9.456;2024-03-02T13:58:00;16.70;90.80
18384;DHT22;9318;48.644;9.456;2024-03-02T14:00:27;16.70;90.60
18384;DHT22;9318;48.644;9.456;2024-03-02T14:02:54;16.60;90.60
18384;DHT22;9318;48.644;9.456;2024-03-02T14:05:21;16.70;91.00
18384;DHT22;9318;48.644;9.456;2024-03-02T14:07:48;16.50;90.00
18384;DHT22;9318;48.644;9.456;2024-03-02T14:10:15;16.50;90.90
18384;DHT22;9318;48.644;9.456;2024-03-02T14:12:44;16.60;91.30
18384;DHT22;9318;48.644;9.456;2024-03-02T14:15:11;16.60;91.20
18384;DHT22;9318;48.644;9.456;2024-03-02T14:17:38;16.80;90.00
18384;DHT22;9318;48.644;9.456;2024-03-02T14:20:06;16.90;89.80
18384;DHT22;9318;48.644;9.456;2024-03-02T14:22:35;16.90;88.90
18384;DHT22;9318;48.644;9.456;2024-03-02T14:25:03;17.00;88.30
18384;DHT22;9318;48.644;9.456;2024-03-02T14:27:30;17.00;87.70
18384;DHT22;9318;48.644;9.456;2024-03-02T14:29:58;17.00;87.70
18384;DHT22;9318;48.644;9.456;2024-03-02T14:33:05;17.00;87.60
18384;DHT22;9318;48.644;9.456;2024-03-02T14:35:37;17.00;87.00
18384;DHT22;9318;48.644;9.456;2024-03-02T14:38:04;16.90;87.80
18384;DHT22;9318;48.644;9.456;2024-03-02T14:40:31;16.90;87.90
18384;DHT22;9318;48.644;9.456;2024-03-02T14:42:58;16.90;87.60
18384;DHT22;9318;48.644;9.456;2024-03-02T14:45:26;16.90;86.90
18384;DHT22;9318;48.644;9.456;2024-03-02T14:47:53;16.90;87.50
18384;DHT22;9318;48.644;9.456;2024-03-02T14:50:20;16.70;89.70
18384;DHT22;9318;48.644;9.456;2024-03-02T14:52:47;16.60;90.20
18384;DHT22;9318;48.644;9.456;2024-03-02T14:55:14;16.70;91.40
18384;DHT22;9318;48.644;9.456;2024-03-02T14:57:41;16.60;92.30
18384;DHT22;9318;48.644;9.456;2024-03-02T15:00:08;16.50;92.00
18384;DHT22;9318;48.644;9.456;2024-03-02T15:02:38;16.40;92.60
18384;DHT22;9318;48.644;9.456;2024-03-02T15:05:05;16.40;91.90
18384;DHT22;9318;48.644;9.456;2024-03-02T15:07:32;16.30;91.70
18384;DHT22;9318;48.644;9.456;2024-03-02T15:09:59;16.20;90.50
18384;DHT22;9318;48.644;9.456;2024-03-02T15:12:26;16.10;90.90
18384;DHT22;9318;48.644;9.456;2024-03-02T15:14:53;16.00;91.10
18384;DHT22;9318;48.644;9.456;2024-03-02T15:17:20;15.90;92.30
18384;DHT22;9318;48.644;9.456;2024-03-02T15:19:49;15.70;93.10
18384;DHT22;9318;48.644;9.456;2024-03-02T15:22:16;15.60;93.80
18384;DHT22;9318;48.644;9.456;2024-03-02T15:24:42;15.60;94.60
18384;DHT22;9318;48.644;9.456;2024-03-02T15:27:09;15.50;95.70
18384;DHT22;9318;48.644;9.456;2024-03-02T15:29:36;15.50;95.90
18384;DHT22;9318;48.644;9.456;2024-03-02T15:32:03;15.40;96.10
18384;DHT22;9318;48.644;9.456;2024-03-02T15:34:32;15.40;96.10
18384;DHT22;9318;48.644;9.456;2024-03-02T15:37:00;15.20;95.30
18384;DHT22;9318;48.644;9.456;2024-03-02T15:39:27;15.10;94.80
18384;DHT22;9318;48.644;9.456;2024-03-02T15:41:53;15.00;95.00
18384;DHT22;9318;48.644;9.456;2024-03-02T15:44:20;14.90;95.50
18384;DHT22;9318;48.644;9.456;2024-03-02T15:46:47;14.80;95.70
18384;DHT22;9318;48.644;9.456;2024-03-02T15:49:14;14.80;94.60
18384;DHT22;9318;48.644;9.456;2024-03-02T15:51:41;14.70;94.50
18384;DHT22;9318;48.644;9.456;2024-03-02T15:54:11;14.60;95.10
18384;DHT22;9318;48.644;9.456;2024-03-02T15:56:37;14.50;95.80
18384;DHT22;9318;48.644;9.456;2024-03-02T15:59:05;14.40;96.50